Pagina principale
METAR-TAF:

METAR-TAF

Aeroporti :

Aeroporto di Quimper Bretagne

Quimper, Francia

latitudine: 47-58N, longitudine: 004-10W, altezza: 92 m

Osservazione

Il bollettino è stato emesso 27 minuti fa, alle 06:00 UTC
Vento 7 kt da nord-est
Temperature 21°C
Umidità 83%
Pressione 1018 hPa
Visibilità 10 km o più

METAR: LFRQ 270600Z AUTO 05007KT 9999 ///CB 21/18 Q1018 BECMG NSC

Ora: 08:27 (06:27 UTC)

Previsione

Il bollettino è stato emesso 1 ora e 27 minuti fa, alle 05:00 UTC
Previsione valida dal 27 alle 06 UTC al 28 alle 06 UTC
Vento 9 kt da est/nord-est
Visibilità 10 km o più
nessuna nube inferiore a 1500 m e nessun cumulonembo
Temporaneamente
dal 27 alle 12 UTC al 27 alle 15 UTC
Vento 13 kt da sud-est con raffiche fino a 23 kt
Evoluzione graduale
dal 27 alle 18 UTC al 27 alle 20 UTC
Vento 9 kt da est

TAF: LFRQ 270500Z 2706/2806 06009KT CAVOK TEMPO 2712/2715 13013G23KT BECMG 2718/2720 10009KT

Osservazioni e previsioni meteorologiche di più di 4000 aeroporti (messaggi METAR e TAF).

Le stazioni disponibili sono rappresentate dai dischi gialli e rossi sulla carta.

Puntare il mouse per vedere il nome della stazione.

Clicca sopra per visualizzare le osservazioni e previsioni meteorologiche.

Per cambiare la mappa : fare clic sui pulsanti verdi con una croce nera per ingrandire, il pulsante verde con un trattino per diminuire, o sulla freccia verde per le mappe adiacenti.


METAR-TAF: